Grey Shark — 3ELV4 — position and weather

sailwx.info

Track history (hours):
 
Tides and Currents Weather Stations Pressure Air Temp Water Temp Dewpoint Dewpoint Depression Visibility Wind Speed Wind Dir Waves Ship Positions

Grey Shark

Last reported at 2016-Jul-06 09:33 UTC. Time now 2016-Jul-25 20:04 UTC.
Position N 10°54' W 062°04'.
Warning: this ship's position is 19 days out of date.

Length 110 m; draft 4.2 m.

Type: Cargo ship. MMSI: 371494000.

Date/timePositionNaut miles runAvg speedWind from/ knotsBaromVisibWave heightAir tempDewpointWater temp
2016-Jul-06 09:33N 10°54' W 062°04'1111.0
2016-Jul-06 08:33N 10°49' W 061°54'10 9.5
2016-Jul-06 07:33N 10°42' W 061°48'8 8.5
2016-Jul-06 06:34N 10°35' W 061°43'9 8.7
2016-Jul-06 05:34N 10°28' W 061°38'8 8.0
2016-Jul-06 04:33N 10°23' W 061°31'2 1.9
2016-Jul-06 03:33N 10°24' W 061°30'0 0.0
2016-Jul-06 02:33N 10°24' W 061°30'0 0.0
2016-Jul-06 00:33N 10°24' W 061°30'0 0.0
2016-Jul-05 23:33N 10°24' W 061°30'0 0.0
2016-Jul-05 22:33N 10°24' W 061°30'0 0.1
2016-Jul-05 21:33N 10°24' W 061°30'3 2.6
2016-Jul-05 20:33N 10°23' W 061°32'9 9.2
2016-Jul-05 19:34N 10°31' W 061°36'7 6.9
2016-Jul-05 18:33N 10°38' W 061°35'0 0.1
2016-Jul-05 17:33N 10°38' W 061°36'0 0.0
2016-Jul-05 16:34N 10°38' W 061°36'0 0.1
2016-Jul-05 15:34N 10°38' W 061°35'0 0.0
2016-Jul-05 14:34N 10°38' W 061°35'0 0.0
2016-Jul-05 13:34N 10°38' W 061°35'0 0.0
2016-Jul-05 12:34N 10°38' W 061°35'0 0.0
2016-Jul-05 11:33N 10°38' W 061°35'0 0.0
2016-Jul-05 10:34N 10°38' W 061°35'0 0.0
2016-Jul-05 09:34N 10°38' W 061°35'0 0.0
2016-Jul-05 08:34N 10°38' W 061°35'0 0.0
2016-Jul-05 07:34N 10°38' W 061°35'0 0.0
2016-Jul-05 06:34N 10°38' W 061°35'0 0.0
2016-Jul-05 04:33N 10°38' W 061°35'0 0.0
2016-Jul-05 03:34N 10°38' W 061°35'0 0.0
2016-Jul-05 02:34N 10°38' W 061°35'0 0.0
2016-Jul-05 01:34N 10°38' W 061°35'0 0.0
2016-Jul-05 00:33N 10°38' W 061°35'0 0.0
2016-Jul-04 23:34N 10°38' W 061°35'0 0.0
2016-Jul-04 22:34N 10°38' W 061°35'0 0.1
2016-Jul-04 21:34N 10°38' W 061°35'0 0.0
2016-Jul-04 20:34N 10°38' W 061°35'0 0.0
2016-Jul-04 19:34N 10°38' W 061°35'0 0.0
2016-Jul-04 18:34N 10°38' W 061°35'2 1.7
2016-Jul-04 17:33N 10°37' W 061°37'9 8.8
2016-Jul-04 16:34N 10°39' W 061°46'7 6.8
2016-Jul-04 15:34N 10°45' W 061°49'5 5.4
2016-Jul-04 14:34N 10°50' W 061°50'7 6.5
2016-Jul-04 13:33N 10°53' W 061°56'  
Track history (hours):
 
Tides and Currents Weather Stations Pressure Air Temp Water Temp Dewpoint Dewpoint Depression Visibility Wind Speed Wind Dir Waves Ship Positions

Grey Shark

Last reported at 2016-Jul-06 09:33 UTC. Time now 2016-Jul-25 20:04 UTC.
Position N 10°54' W 062°04'.
Warning: this ship's position is 19 days out of date.

Length 110 m; draft 4.2 m.

Type: Cargo ship. MMSI: 371494000.

Date/timePositionNaut miles runAvg speedWind from/ knotsBaromVisibWave heightAir tempDewpointWater temp
2016-Jul-06 09:33N 10°54' W 062°04'1111.0
2016-Jul-06 08:33N 10°49' W 061°54'10 9.5
2016-Jul-06 07:33N 10°42' W 061°48'8 8.5
2016-Jul-06 06:34N 10°35' W 061°43'9 8.7
2016-Jul-06 05:34N 10°28' W 061°38'8 8.0
2016-Jul-06 04:33N 10°23' W 061°31'2 1.9
2016-Jul-06 03:33N 10°24' W 061°30'0 0.0
2016-Jul-06 02:33N 10°24' W 061°30'0 0.0
2016-Jul-06 00:33N 10°24' W 061°30'0 0.0
2016-Jul-05 23:33N 10°24' W 061°30'0 0.0
2016-Jul-05 22:33N 10°24' W 061°30'0 0.1
2016-Jul-05 21:33N 10°24' W 061°30'3 2.6
2016-Jul-05 20:33N 10°23' W 061°32'9 9.2
2016-Jul-05 19:34N 10°31' W 061°36'7 6.9
2016-Jul-05 18:33N 10°38' W 061°35'0 0.1
2016-Jul-05 17:33N 10°38' W 061°36'0 0.0
2016-Jul-05 16:34N 10°38' W 061°36'0 0.1
2016-Jul-05 15:34N 10°38' W 061°35'0 0.0
2016-Jul-05 14:34N 10°38' W 061°35'0 0.0
2016-Jul-05 13:34N 10°38' W 061°35'0 0.0
2016-Jul-05 12:34N 10°38' W 061°35'0 0.0
2016-Jul-05 11:33N 10°38' W 061°35'0 0.0
2016-Jul-05 10:34N 10°38' W 061°35'0 0.0
2016-Jul-05 09:34N 10°38' W 061°35'0 0.0
2016-Jul-05 08:34N 10°38' W 061°35'0 0.0
2016-Jul-05 07:34N 10°38' W 061°35'0 0.0
2016-Jul-05 06:34N 10°38' W 061°35'0 0.0
2016-Jul-05 04:33N 10°38' W 061°35'0 0.0
2016-Jul-05 03:34N 10°38' W 061°35'0 0.0
2016-Jul-05 02:34N 10°38' W 061°35'0 0.0
2016-Jul-05 01:34N 10°38' W 061°35'0 0.0
2016-Jul-05 00:33N 10°38' W 061°35'0 0.0
2016-Jul-04 23:34N 10°38' W 061°35'0 0.0
2016-Jul-04 22:34N 10°38' W 061°35'0 0.1
2016-Jul-04 21:34N 10°38' W 061°35'0 0.0
2016-Jul-04 20:34N 10°38' W 061°35'0 0.0
2016-Jul-04 19:34N 10°38' W 061°35'0 0.0
2016-Jul-04 18:34N 10°38' W 061°35'2 1.7
2016-Jul-04 17:33N 10°37' W 061°37'9 8.8
2016-Jul-04 16:34N 10°39' W 061°46'7 6.8
2016-Jul-04 15:34N 10°45' W 061°49'5 5.4
2016-Jul-04 14:34N 10°50' W 061°50'7 6.5
2016-Jul-04 13:33N 10°53' W 061°56'  

Dump ship's entire track history